Time;durP1;ratioP1;P1;durP2;ratioP2;P2;SDS_P1;SDS_P2;PMS_P1;PMS_P2;Temp;Humidity;BMP_temperature;BMP_pressure;BME280_temperature;BME280_humidity;BME280_pressure;Samples;Min_cycle;Max_cycle;Signal;HPM_P1;HPM_P2
2023/04/21 00:00:57;;;;;;;40.60;14.93;;;8.60;99.90;;;;;;5049637;28;20447;-73
2023/04/21 00:03:25;;;;;;;42.95;15.88;;;8.60;99.90;;;;;;5053742;28;20398;-74
2023/04/21 00:05:50;;;;;;;43.70;15.70;;;8.60;99.90;;;;;;5053545;28;20024;-73
2023/04/21 00:08:17;;;;;;;41.67;15.57;;;8.60;99.90;;;;;;5053571;28;20037;-73
2023/04/21 00:10:43;;;;;;;45.47;15.48;;;8.70;99.90;;;;;;5054058;28;20479;-73
2023/04/21 00:13:09;;;;;;;40.08;15.15;;;8.60;99.90;;;;;;5053774;28;20036;-72
2023/04/21 00:15:35;;;;;;;42.78;16.02;;;8.60;99.90;;;;;;5054642;28;20017;-72
2023/04/21 00:18:02;;;;;;;38.50;16.05;;;8.60;99.90;;;;;;5053727;28;20083;-72
2023/04/21 00:20:28;;;;;;;41.00;14.55;;;8.60;99.90;;;;;;5054264;28;20359;-73
2023/04/21 00:22:55;;;;;;;41.25;15.73;;;8.60;99.90;;;;;;5053402;28;20353;-73
2023/04/21 00:25:21;;;;;;;39.17;16.05;;;8.60;99.90;;;;;;5052734;28;20032;-73
2023/04/21 00:27:47;;;;;;;36.20;15.45;;;8.60;99.90;;;;;;5052116;28;20495;-72
2023/04/21 00:30:13;;;;;;;45.17;16.55;;;8.60;99.90;;;;;;5052278;28;20043;-73
2023/04/21 00:32:38;;;;;;;42.83;15.05;;;8.50;99.90;;;;;;5051655;28;20086;-73
2023/04/21 00:35:04;;;;;;;38.33;14.55;;;8.60;99.90;;;;;;5052048;28;20407;-73
2023/04/21 00:37:30;;;;;;;34.90;15.35;;;8.60;99.90;;;;;;5051958;28;20384;-72
2023/04/21 00:39:57;;;;;;;45.20;15.23;;;8.60;99.90;;;;;;5052021;28;20025;-72
2023/04/21 00:42:23;;;;;;;41.50;16.17;;;8.60;99.90;;;;;;5051569;28;20025;-73
2023/04/21 00:44:49;;;;;;;47.60;16.70;;;8.60;99.90;;;;;;5051824;28;20521;-72
2023/04/21 00:47:15;;;;;;;42.38;16.80;;;8.60;99.90;;;;;;5051298;28;20032;-71
2023/04/21 00:49:41;;;;;;;49.70;16.50;;;8.60;99.90;;;;;;5051696;28;20032;-72
2023/04/21 00:52:07;;;;;;;36.72;15.55;;;8.60;99.90;;;;;;5051345;28;20021;-72
2023/04/21 00:54:35;;;;;;;43.33;17.23;;;8.60;99.90;;;;;;5051599;28;20383;-73
2023/04/21 00:57:02;;;;;;;34.67;16.27;;;8.50;99.90;;;;;;5050105;28;20808;-72
2023/04/21 00:59:28;;;;;;;39.58;16.98;;;8.50;99.90;;;;;;5071487;28;20021;-72
2023/04/21 01:01:54;;;;;;;44.67;16.73;;;8.50;99.90;;;;;;5060519;28;20463;-72
2023/04/21 01:04:20;;;;;;;39.75;16.02;;;8.50;99.90;;;;;;5051531;28;20055;-71
2023/04/21 01:06:45;;;;;;;42.30;16.75;;;8.50;99.90;;;;;;5049919;28;20162;-73
2023/04/21 01:09:12;;;;;;;38.85;15.55;;;8.50;99.90;;;;;;5051226;28;20029;-72
2023/04/21 01:11:38;;;;;;;41.40;15.27;;;8.50;99.90;;;;;;5051063;28;20021;-72
2023/04/21 01:14:04;;;;;;;38.08;15.68;;;8.50;99.90;;;;;;5050680;28;20021;-72
2023/04/21 01:16:31;;;;;;;39.60;16.23;;;8.40;99.90;;;;;;5051234;28;20025;-73
2023/04/21 01:18:58;;;;;;;37.63;15.73;;;8.40;99.90;;;;;;5051035;28;20402;-72
2023/04/21 01:21:23;;;;;;;37.95;15.85;;;8.40;99.90;;;;;;5051074;28;20046;-71
2023/04/21 01:23:49;;;;;;;35.67;16.52;;;8.40;99.90;;;;;;5052275;28;20444;-73
2023/04/21 01:26:20;;;;;;;45.10;16.02;;;8.40;99.90;;;;;;5052504;28;20387;-73
2023/04/21 01:28:47;;;;;;;40.83;14.90;;;8.40;99.90;;;;;;5051581;28;20361;-73
2023/04/21 01:31:16;;;;;;;32.78;14.90;;;8.50;99.90;;;;;;5051508;28;20462;-74
2023/04/21 01:33:42;;;;;;;32.33;14.35;;;8.50;99.90;;;;;;5051180;28;20047;-74
2023/04/21 01:36:09;;;;;;;39.88;15.02;;;8.50;99.90;;;;;;5051494;28;20029;-73
2023/04/21 01:38:39;;;;;;;38.08;14.65;;;8.60;99.90;;;;;;5051111;28;20394;-73
2023/04/21 01:41:06;;;;;;;41.65;15.75;;;8.50;99.90;;;;;;5051217;28;20028;-72
2023/04/21 01:43:31;;;;;;;36.13;14.65;;;8.50;99.90;;;;;;5050929;28;20020;-73
2023/04/21 01:45:57;;;;;;;38.30;14.90;;;8.50;99.90;;;;;;5049800;28;20387;-71
2023/04/21 01:48:22;;;;;;;31.30;14.50;;;8.50;99.90;;;;;;5049741;28;20029;-72
2023/04/21 01:50:48;;;;;;;31.92;14.02;;;8.50;99.90;;;;;;5050759;28;20029;-73
2023/04/21 01:53:14;;;;;;;40.30;14.93;;;8.30;99.90;;;;;;5050400;28;20503;-71
2023/04/21 01:55:39;;;;;;;47.05;14.82;;;8.50;99.90;;;;;;5050921;28;20063;-71
2023/04/21 01:58:05;;;;;;;34.03;14.30;;;8.40;99.90;;;;;;5050813;28;20031;-72
2023/04/21 02:00:31;;;;;;;31.63;14.32;;;8.40;99.90;;;;;;5050922;28;20021;-72
2023/04/21 02:02:56;;;;;;;35.25;13.00;;;8.50;99.90;;;;;;5067347;28;20165;-73
2023/04/21 02:05:22;;;;;;;32.40;13.63;;;8.50;99.90;;;;;;5071183;28;20490;-73
2023/04/21 02:07:47;;;;;;;31.45;13.30;;;8.50;99.90;;;;;;5070458;28;20078;-73
2023/04/21 02:10:13;;;;;;;39.22;14.40;;;8.60;99.90;;;;;;5071130;28;20024;-72
2023/04/21 02:12:39;;;;;;;31.95;13.65;;;8.50;99.90;;;;;;5070784;28;20036;-72
2023/04/21 02:15:05;;;;;;;32.03;13.82;;;8.50;99.90;;;;;;5071991;28;20052;-72
2023/04/21 02:17:31;;;;;;;37.45;13.75;;;8.60;99.90;;;;;;5070117;28;20410;-75
2023/04/21 02:19:56;;;;;;;32.50;13.55;;;8.50;99.90;;;;;;5071638;28;20028;-71
2023/04/21 02:22:22;;;;;;;31.65;12.85;;;8.50;99.90;;;;;;5070762;28;20285;-71
2023/04/21 02:24:49;;;;;;;28.20;13.00;;;8.50;99.50;;;;;;5070937;28;20039;-74
2023/04/21 02:27:14;;;;;;;41.33;13.50;;;8.50;99.80;;;;;;5070443;28;20028;-72
2023/04/21 02:29:40;;;;;;;33.50;13.70;;;8.40;99.50;;;;;;5070276;28;20398;-73
2023/04/21 02:32:06;;;;;;;33.03;12.98;;;8.40;99.80;;;;;;5069950;28;20032;-74
2023/04/21 02:34:32;;;;;;;36.90;14.70;;;8.40;99.90;;;;;;5070646;28;20013;-74
2023/04/21 02:36:58;;;;;;;31.00;12.90;;;8.40;99.90;;;;;;5070357;28;20557;-74
2023/04/21 02:39:24;;;;;;;38.47;13.18;;;8.30;99.90;;;;;;5070478;28;20031;-74
2023/04/21 02:41:50;;;;;;;33.92;14.10;;;8.30;99.90;;;;;;5070295;28;20025;-74
2023/04/21 02:44:15;;;;;;;41.63;13.55;;;8.30;99.90;;;;;;5070543;28;20042;-75
2023/04/21 02:46:41;;;;;;;31.95;12.63;;;8.40;99.90;;;;;;5070630;28;20032;-74
2023/04/21 02:49:07;;;;;;;41.05;13.02;;;8.30;99.90;;;;;;5070290;28;20351;-76
2023/04/21 02:51:33;;;;;;;30.35;12.65;;;8.30;99.90;;;;;;5070168;28;20031;-74
2023/04/21 02:53:59;;;;;;;29.20;12.57;;;8.30;99.90;;;;;;5070167;28;20033;-74
2023/04/21 02:56:25;;;;;;;30.15;12.52;;;8.30;99.90;;;;;;5070779;28;20016;-73
2023/04/21 02:58:50;;;;;;;34.00;12.65;;;8.30;99.90;;;;;;5070420;28;20043;-74
2023/04/21 03:01:16;;;;;;;30.55;12.63;;;8.30;99.90;;;;;;5070533;28;20367;-73
2023/04/21 03:03:41;;;;;;;33.58;12.77;;;8.30;99.90;;;;;;5070756;28;20024;-74
2023/04/21 03:06:07;;;;;;;35.45;13.40;;;8.30;99.90;;;;;;5071105;28;20498;-73
2023/04/21 03:08:33;;;;;;;28.35;12.20;;;8.30;99.90;;;;;;5076041;28;20032;-72
2023/04/21 03:10:59;;;;;;;40.83;13.07;;;8.20;99.90;;;;;;5076962;28;20033;-74
2023/04/21 03:13:25;;;;;;;36.72;12.82;;;8.30;99.90;;;;;;5073158;28;20028;-73
2023/04/21 03:15:50;;;;;;;33.97;13.02;;;8.30;99.90;;;;;;5073543;28;20055;-73
2023/04/21 03:18:16;;;;;;;37.05;13.43;;;8.30;99.90;;;;;;5073507;28;20096;-72
2023/04/21 03:20:42;;;;;;;37.33;14.52;;;8.20;99.90;;;;;;5073554;28;20470;-72
2023/04/21 03:23:08;;;;;;;38.63;13.73;;;8.20;99.90;;;;;;5073480;28;20063;-73
2023/04/21 03:25:34;;;;;;;45.67;13.95;;;8.30;99.90;;;;;;5073341;28;20455;-72
2023/04/21 03:28:00;;;;;;;33.00;13.68;;;8.30;99.80;;;;;;5073193;28;20390;-73
2023/04/21 03:30:26;;;;;;;30.50;12.77;;;8.30;99.70;;;;;;5073644;28;20115;-73
2023/04/21 03:32:52;;;;;;;32.17;13.38;;;8.30;99.50;;;;;;5072986;28;20101;-75
2023/04/21 03:35:17;;;;;;;30.45;12.77;;;8.30;99.50;;;;;;5060859;28;20131;-75
2023/04/21 03:37:43;;;;;;;25.70;12.85;;;8.30;99.10;;;;;;5052950;28;20027;-75
2023/04/21 03:40:10;;;;;;;35.30;13.02;;;8.40;98.90;;;;;;5053270;28;20075;-75
2023/04/21 03:42:36;;;;;;;33.10;12.52;;;8.30;98.90;;;;;;5055700;28;20088;-76
2023/04/21 03:45:03;;;;;;;34.15;12.95;;;8.20;98.60;;;;;;5055009;28;20501;-75
2023/04/21 03:47:29;;;;;;;38.20;13.15;;;8.20;99.30;;;;;;5053055;28;20036;-76
2023/04/21 03:49:54;;;;;;;29.63;12.43;;;8.20;99.40;;;;;;5052972;28;20025;-74
2023/04/21 03:52:20;;;;;;;31.13;12.65;;;8.10;99.40;;;;;;5052516;28;20044;-73
2023/04/21 03:54:45;;;;;;;32.60;12.50;;;8.20;99.40;;;;;;5052704;28;20067;-74
2023/04/21 03:57:12;;;;;;;26.15;12.43;;;8.20;99.30;;;;;;5052498;28;20033;-73
2023/04/21 03:59:38;;;;;;;29.55;12.80;;;8.20;98.70;;;;;;5052671;28;20021;-72
2023/04/21 04:02:03;;;;;;;33.35;12.45;;;8.20;99.00;;;;;;5053320;28;20032;-72
2023/04/21 04:04:29;;;;;;;36.63;13.00;;;8.20;98.40;;;;;;5054171;28;20077;-73
2023/04/21 04:06:55;;;;;;;31.50;13.15;;;8.20;98.80;;;;;;5054340;28;20061;-73
2023/04/21 04:09:20;;;;;;;33.35;13.02;;;8.20;99.40;;;;;;5054224;28;20052;-74
2023/04/21 04:11:46;;;;;;;35.92;12.65;;;8.20;99.80;;;;;;5053597;28;20028;-73
2023/04/21 04:14:11;;;;;;;30.05;12.52;;;8.10;99.50;;;;;;5054221;28;20128;-73
2023/04/21 04:16:37;;;;;;;32.10;12.93;;;8.20;99.90;;;;;;5054273;28;20021;-72
2023/04/21 04:19:03;;;;;;;33.85;12.95;;;8.20;99.90;;;;;;5054690;28;20494;-74
2023/04/21 04:21:28;;;;;;;25.33;12.63;;;8.10;99.80;;;;;;5053334;28;20021;-73
2023/04/21 04:23:55;;;;;;;35.58;12.60;;;8.20;99.70;;;;;;5054114;28;20029;-73
2023/04/21 04:26:23;;;;;;;39.25;12.85;;;8.20;99.70;;;;;;5053032;28;20029;-75
2023/04/21 04:28:49;;;;;;;33.13;13.95;;;8.20;99.70;;;;;;5054369;28;20044;-74
2023/04/21 04:31:15;;;;;;;45.85;12.07;;;8.10;99.80;;;;;;5055665;28;20025;-75
2023/04/21 04:33:41;;;;;;;34.58;12.48;;;8.10;99.90;;;;;;5054308;28;20111;-75
2023/04/21 04:36:08;;;;;;;38.58;12.77;;;8.10;99.90;;;;;;5057802;28;20121;-75
2023/04/21 04:38:36;;;;;;;35.63;13.93;;;8.10;99.90;;;;;;5058367;28;20108;-73
2023/04/21 04:41:02;;;;;;;34.55;13.57;;;8.20;99.80;;;;;;5058532;28;20021;-73
2023/04/21 04:43:28;;;;;;;27.92;13.02;;;8.20;99.80;;;;;;5056897;28;20032;-74
2023/04/21 04:45:54;;;;;;;27.42;13.05;;;8.20;99.40;;;;;;5052933;28;20090;-72
2023/04/21 04:48:19;;;;;;;31.25;12.10;;;8.20;99.60;;;;;;5052598;28;20035;-73
2023/04/21 04:50:45;;;;;;;29.17;12.45;;;8.30;99.40;;;;;;5051555;28;20112;-73
2023/04/21 04:53:10;;;;;;;35.33;12.93;;;8.30;99.30;;;;;;5052212;28;20064;-73
2023/04/21 04:55:36;;;;;;;33.85;13.77;;;8.20;99.30;;;;;;5052422;28;20492;-71
2023/04/21 04:58:02;;;;;;;29.80;12.00;;;8.30;99.60;;;;;;5053084;28;20037;-72
2023/04/21 05:00:28;;;;;;;32.75;12.70;;;8.30;99.80;;;;;;5052856;28;20017;-72
2023/04/21 05:02:54;;;;;;;34.88;13.73;;;8.30;99.00;;;;;;5052418;28;20033;-72
2023/04/21 05:05:20;;;;;;;31.98;12.30;;;8.40;98.60;;;;;;5052665;28;20521;-72
2023/04/21 05:07:46;;;;;;;31.60;12.23;;;8.40;97.90;;;;;;5052833;28;20029;-72
2023/04/21 05:10:12;;;;;;;29.17;12.55;;;8.40;97.50;;;;;;5052356;28;20051;-72
2023/04/21 05:12:38;;;;;;;31.50;12.43;;;8.50;97.30;;;;;;5052528;28;20029;-73
2023/04/21 05:15:05;;;;;;;31.40;12.85;;;8.50;96.60;;;;;;5052827;28;20033;-72
2023/04/21 05:17:32;;;;;;;32.65;13.82;;;8.50;96.60;;;;;;5052981;28;20459;-73
2023/04/21 05:19:58;;;;;;;36.20;13.68;;;8.60;96.60;;;;;;5052917;28;20028;-72
2023/04/21 05:22:25;;;;;;;35.63;13.10;;;8.70;95.90;;;;;;5053520;28;20028;-73
2023/04/21 05:24:51;;;;;;;32.50;13.40;;;8.70;94.50;;;;;;5054205;28;20025;-73
2023/04/21 05:27:16;;;;;;;27.67;12.88;;;8.70;94.60;;;;;;5052938;28;20028;-72
2023/04/21 05:29:42;;;;;;;29.02;11.80;;;8.80;94.20;;;;;;5052559;28;20032;-76
2023/04/21 05:32:08;;;;;;;25.05;11.80;;;8.80;93.30;;;;;;5049862;28;20025;-74
2023/04/21 05:34:34;;;;;;;31.73;12.38;;;8.80;93.00;;;;;;5051667;28;20372;-74
2023/04/21 05:36:59;;;;;;;23.60;11.43;;;8.90;92.50;;;;;;5052979;28;20372;-74
2023/04/21 05:39:28;;;;;;;28.00;12.10;;;8.90;92.20;;;;;;5052077;28;20028;-72
2023/04/21 05:41:54;;;;;;;25.63;12.73;;;9.00;91.70;;;;;;5059163;28;20136;-74
2023/04/21 05:44:19;;;;;;;29.52;13.10;;;9.00;90.20;;;;;;5052977;28;20049;-75
2023/04/21 05:46:45;;;;;;;33.58;12.07;;;9.10;90.00;;;;;;5053847;28;20102;-75
2023/04/21 05:49:10;;;;;;;29.23;12.18;;;9.20;87.90;;;;;;5060079;28;20021;-74
2023/04/21 05:51:36;;;;;;;28.90;12.38;;;9.20;84.40;;;;;;5052899;28;20021;-74
2023/04/21 05:54:02;;;;;;;26.80;11.23;;;9.30;82.50;;;;;;5052299;28;20040;-74
2023/04/21 05:56:27;;;;;;;23.88;11.55;;;9.40;76.60;;;;;;5053771;28;20021;-74
2023/04/21 05:58:53;;;;;;;22.83;11.27;;;9.50;75.20;;;;;;5052640;28;20498;-75
2023/04/21 06:01:19;;;;;;;28.33;11.32;;;9.60;68.30;;;;;;5052053;28;20107;-74
2023/04/21 06:03:47;;;;;;;25.75;11.15;;;9.60;65.60;;;;;;5052121;28;20059;-73
2023/04/21 06:06:13;;;;;;;28.10;12.45;;;9.70;61.10;;;;;;5054880;28;20025;-73
2023/04/21 06:08:39;;;;;;;27.75;11.75;;;9.70;58.90;;;;;;5052613;28;20029;-74
2023/04/21 06:11:05;;;;;;;36.83;11.80;;;9.80;54.80;;;;;;5052095;28;20404;-73
2023/04/21 06:13:30;;;;;;;23.58;11.52;;;9.90;48.90;;;;;;5051922;28;20029;-72
2023/04/21 06:15:56;;;;;;;26.90;11.43;;;9.90;42.20;;;;;;5052013;28;20104;-71
2023/04/21 06:18:23;;;;;;;25.48;10.70;;;10.00;41.90;;;;;;5052758;28;20029;-72
2023/04/21 06:20:53;;;;;;;40.47;14.60;;;10.10;38.90;;;;;;5052375;28;20021;-72
2023/04/21 06:23:19;;;;;;;26.95;11.35;;;10.10;37.30;;;;;;5052053;28;20406;-72
2023/04/21 06:25:45;;;;;;;31.15;11.15;;;10.20;34.90;;;;;;5053343;28;20029;-72
2023/04/21 06:28:10;;;;;;;24.27;10.45;;;10.30;32.60;;;;;;5051727;28;20517;-77
2023/04/21 06:30:36;;;;;;;26.67;10.75;;;10.30;33.40;;;;;;5053430;28;20035;-73
2023/04/21 06:33:03;;;;;;;24.48;11.90;;;10.40;28.60;;;;;;5054310;28;20028;-73
2023/04/21 06:35:29;;;;;;;30.77;11.60;;;10.50;26.80;;;;;;5053277;28;20013;-72
2023/04/21 06:37:55;;;;;;;37.20;12.23;;;10.60;21.20;;;;;;5051532;28;20053;-74
2023/04/21 06:40:21;;;;;;;26.50;10.35;;;10.70;17.90;;;;;;5051546;28;20048;-73
2023/04/21 06:42:46;;;;;;;26.02;10.02;;;10.70;11.80;;;;;;5051147;28;20509;-73
2023/04/21 06:45:12;;;;;;;24.25;11.18;;;10.90;8.20;;;;;;5052574;28;20074;-72
2023/04/21 06:47:37;;;;;;;34.03;10.77;;;10.90;1.40;;;;;;5055029;28;20127;-72
2023/04/21 06:50:03;;;;;;;20.55;10.13;;;10.90;1.00;;;;;;5054743;28;20037;-74
2023/04/21 06:52:29;;;;;;;22.98;10.65;;;11.00;1.00;;;;;;5054682;28;20029;-72
2023/04/21 06:54:55;;;;;;;26.45;10.05;;;11.00;1.00;;;;;;5055141;28;20393;-72
2023/04/21 06:57:21;;;;;;;32.72;11.00;;;11.10;1.00;;;;;;5054763;28;20514;-71
2023/04/21 06:59:46;;;;;;;25.10;10.13;;;11.10;1.00;;;;;;5054527;28;20045;-74
2023/04/21 07:02:12;;;;;;;21.67;9.90;;;11.30;1.00;;;;;;5054340;28;20490;-72
2023/04/21 07:04:37;;;;;;;26.77;10.57;;;11.30;1.00;;;;;;5054732;28;20028;-73
2023/04/21 07:07:03;;;;;;;28.10;10.68;;;11.30;1.00;;;;;;5054277;28;20037;-72
2023/04/21 07:09:29;;;;;;;22.55;10.13;;;11.40;1.00;;;;;;5053955;28;20021;-72
2023/04/21 07:11:55;;;;;;;25.65;10.50;;;11.50;1.00;;;;;;5055210;28;20104;-73
2023/04/21 07:14:20;;;;;;;30.08;10.18;;;11.60;1.00;;;;;;5054807;28;20501;-73
2023/04/21 07:16:46;;;;;;;24.63;10.38;;;11.70;1.00;;;;;;5055198;28;20048;-72
2023/04/21 07:19:11;;;;;;;22.20;9.60;;;11.70;1.00;;;;;;5055569;28;20471;-71
2023/04/21 07:21:37;;;;;;;24.27;10.13;;;11.80;1.00;;;;;;5054749;28;20017;-74
2023/04/21 07:24:04;;;;;;;22.17;10.57;;;11.90;1.00;;;;;;5055138;28;20344;-72
2023/04/21 07:26:30;;;;;;;21.52;10.40;;;12.00;1.00;;;;;;5054543;28;20057;-73
2023/04/21 07:28:57;;;;;;;25.88;9.60;;;12.10;1.00;;;;;;5054437;28;20414;-73
2023/04/21 07:31:23;;;;;;;22.67;10.40;;;12.20;1.00;;;;;;5054672;28;20017;-73
2023/04/21 07:33:49;;;;;;;21.95;10.10;;;12.40;1.00;;;;;;5054955;28;20067;-73
2023/04/21 07:36:15;;;;;;;28.55;9.05;;;12.60;1.00;;;;;;5055735;28;20017;-73
2023/04/21 07:38:42;;;;;;;23.63;9.77;;;12.60;1.00;;;;;;5054458;28;20074;-72
2023/04/21 07:41:12;;;;;;;30.15;9.70;;;12.80;1.00;;;;;;5054266;28;20067;-72
2023/04/21 07:43:38;;;;;;;21.15;10.15;;;12.80;1.00;;;;;;5054227;28;20025;-73
2023/04/21 07:46:04;;;;;;;30.33;10.50;;;12.90;1.00;;;;;;5054401;28;20033;-72
2023/04/21 07:48:30;;;;;;;20.20;9.48;;;12.90;1.00;;;;;;5054317;28;20037;-76
2023/04/21 07:50:57;;;;;;;18.38;10.27;;;13.00;1.00;;;;;;5052746;28;20033;-74
2023/04/21 07:53:23;;;;;;;19.55;9.25;;;13.10;1.00;;;;;;5053562;28;20021;-72
2023/04/21 07:55:48;;;;;;;21.90;11.07;;;13.20;1.00;;;;;;5053891;28;20021;-72
2023/04/21 07:58:15;;;;;;;22.95;10.13;;;13.30;1.00;;;;;;5053591;28;20342;-72
2023/04/21 08:00:41;;;;;;;20.45;9.93;;;13.40;1.00;;;;;;5053462;28;20028;-72
2023/04/21 08:03:06;;;;;;;25.27;10.63;;;13.50;1.00;;;;;;5053356;28;20028;-70
2023/04/21 08:05:32;;;;;;;22.23;9.95;;;13.60;1.00;;;;;;5053964;28;20036;-72
2023/04/21 08:07:58;;;;;;;20.67;10.10;;;13.60;1.00;;;;;;5053778;28;20037;-73
2023/04/21 08:10:23;;;;;;;18.95;8.82;;;13.70;1.00;;;;;;5054111;28;20025;-73
2023/04/21 08:12:50;;;;;;;22.48;9.98;;;13.80;1.00;;;;;;5053660;28;20029;-75
2023/04/21 08:15:15;;;;;;;22.65;10.00;;;14.00;1.00;;;;;;5053721;28;20056;-73
2023/04/21 08:17:41;;;;;;;25.90;9.80;;;14.00;99.90;;;;;;5053567;28;20052;-72
2023/04/21 08:20:07;;;;;;;21.23;9.80;;;14.10;99.90;;;;;;5052305;28;20017;-72
2023/04/21 08:22:35;;;;;;;24.08;10.15;;;14.20;99.90;;;;;;5060372;28;20108;-73
2023/04/21 08:25:01;;;;;;;17.40;9.48;;;14.20;99.90;;;;;;5053560;28;20547;-70
2023/04/21 08:27:27;;;;;;;21.25;9.82;;;14.30;99.90;;;;;;5053427;28;20112;-72
2023/04/21 08:29:52;;;;;;;18.90;8.90;;;14.50;99.90;;;;;;5053540;28;20109;-70
2023/04/21 08:32:22;;;;;;;21.58;9.63;;;14.60;99.90;;;;;;5052506;28;20017;-71
2023/04/21 08:34:51;;;;;;;18.05;9.07;;;14.70;99.90;;;;;;5052940;28;20051;-72
2023/04/21 08:37:20;;;;;;;19.42;8.73;;;14.80;99.90;;;;;;5052951;28;20471;-73
2023/04/21 08:39:46;;;;;;;18.02;9.05;;;14.80;99.90;;;;;;5051934;28;20029;-74
2023/04/21 08:42:13;;;;;;;16.75;9.38;;;14.90;99.90;;;;;;5053381;28;20029;-71
2023/04/21 08:44:40;;;;;;;22.88;9.65;;;15.00;73.30;;;;;;5054160;28;20048;-73
2023/04/21 08:47:12;;;;;;;20.83;8.98;;;15.10;18.40;;;;;;5053316;28;20028;-73
2023/04/21 08:49:39;;;;;;;19.10;9.25;;;15.20;1.00;;;;;;5053692;28;20504;-72
2023/04/21 08:52:05;;;;;;;38.63;19.58;;;15.20;1.00;;;;;;5055456;28;20033;-72
2023/04/21 08:54:31;;;;;;;21.77;9.98;;;15.30;1.00;;;;;;5053283;28;20021;-71
2023/04/21 08:56:57;;;;;;;20.58;10.05;;;15.50;1.50;;;;;;5052581;28;20028;-72
2023/04/21 08:59:23;;;;;;;26.90;10.38;;;15.70;4.80;;;;;;5052128;28;20032;-71
2023/04/21 09:02:08;;;;;;;20.15;9.70;;;15.80;1.00;;;;;;5051554;28;20155;-73
2023/04/21 09:04:37;;;;;;;19.33;9.95;;;15.90;1.00;;;;;;5051886;28;20402;-73
2023/04/21 09:07:02;;;;;;;22.70;9.77;;;16.00;1.00;;;;;;5052841;28;20334;-73
2023/04/21 09:09:28;;;;;;;20.15;10.27;;;16.00;1.00;;;;;;5050827;28;20028;-71
2023/04/21 09:12:00;;;;;;;18.75;8.80;;;16.00;1.00;;;;;;5051850;28;20111;-71
2023/04/21 09:14:33;;;;;;;16.20;8.52;;;16.10;1.00;;;;;;5052930;28;20486;-72
2023/04/21 09:17:00;;;;;;;26.55;9.23;;;16.20;1.00;;;;;;5053270;28;20025;-72
2023/04/21 09:19:32;;;;;;;17.25;9.32;;;16.40;99.90;;;;;;5052565;28;20043;-71
2023/04/21 09:21:59;;;;;;;20.05;9.38;;;16.50;99.90;;;;;;5052021;28;20045;-71
2023/04/21 09:24:25;;;;;;;22.10;9.98;;;16.70;97.60;;;;;;5051868;28;20506;-71
2023/04/21 09:26:52;;;;;;;20.23;9.93;;;16.70;1.00;;;;;;5052167;28;20162;-73
2023/04/21 09:29:20;;;;;;;18.95;9.93;;;16.80;1.00;;;;;;5052907;28;20028;-72
2023/04/21 09:31:46;;;;;;;20.70;9.55;;;17.00;1.00;;;;;;5053424;28;20017;-72
2023/04/21 09:34:25;;;;;;;20.13;9.82;;;17.10;1.00;;;;;;5052570;28;20033;-72
2023/04/21 09:37:01;;;;;;;20.00;9.43;;;17.20;1.00;;;;;;5053150;28;20032;-73
2023/04/21 09:39:33;;;;;;;22.80;9.80;;;17.40;99.90;;;;;;5051994;28;20014;-72
2023/04/21 09:42:00;;;;;;;24.50;9.65;;;17.50;99.90;;;;;;5051959;28;20095;-71
2023/04/21 09:44:26;;;;;;;19.77;9.50;;;17.50;99.90;;;;;;5051884;28;20048;-72
2023/04/21 09:46:58;;;;;;;20.25;9.65;;;17.60;20.60;;;;;;5046880;28;20056;-73
2023/04/21 09:49:28;;;;;;;20.52;9.68;;;17.60;1.00;;;;;;5059035;28;20082;-72
2023/04/21 09:51:55;;;;;;;19.98;10.05;;;17.60;1.00;;;;;;5045856;28;20033;-73
2023/04/21 09:54:25;;;;;;;22.67;9.50;;;17.70;1.00;;;;;;5057026;28;20041;-72
2023/04/21 09:56:53;;;;;;;23.17;9.38;;;17.90;99.90;;;;;;5055668;28;20351;-72
2023/04/21 09:59:23;;;;;;;20.20;9.05;;;17.90;99.90;;;;;;5053217;28;20062;-72
2023/04/21 10:01:50;;;;;;;21.95;9.10;;;18.00;99.90;;;;;;5050832;28;20021;-73
2023/04/21 10:04:18;;;;;;;18.08;8.70;;;18.10;99.90;;;;;;5051026;28;20082;-72
2023/04/21 10:06:46;;;;;;;18.58;9.02;;;18.20;99.90;;;;;;5051353;28;20017;-71
2023/04/21 10:09:13;;;;;;;28.35;9.93;;;18.20;1.00;;;;;;5051636;28;20128;-72
2023/04/21 10:11:39;;;;;;;19.75;9.70;;;18.30;1.00;;;;;;5051549;28;20013;-72
2023/04/21 10:14:07;;;;;;;16.02;9.20;;;18.40;1.00;;;;;;5050171;28;20390;-72
2023/04/21 10:16:36;;;;;;;17.50;8.65;;;18.50;1.00;;;;;;5052662;28;20525;-71
2023/04/21 10:19:25;;;;;;;15.73;8.38;;;18.60;99.90;;;;;;5052954;28;20466;-72
2023/04/21 10:21:54;;;;;;;22.48;9.18;;;18.70;1.00;;;;;;5055307;28;20466;-72
2023/04/21 10:24:19;;;;;;;25.08;10.20;;;18.80;99.90;;;;;;5055535;28;20398;-72
2023/04/21 10:26:45;;;;;;;18.50;8.45;;;18.90;1.00;;;;;;5055435;28;20033;-73
2023/04/21 10:29:11;;;;;;;17.98;8.70;;;18.90;1.00;;;;;;5055736;28;20024;-74
2023/04/21 10:31:37;;;;;;;17.70;9.07;;;19.00;1.00;;;;;;5055189;28;20029;-72
2023/04/21 10:34:06;;;;;;;20.83;8.73;;;19.00;99.90;;;;;;5055077;28;20102;-72
2023/04/21 10:36:36;;;;;;;18.80;9.07;;;19.00;99.90;;;;;;5055348;28;20502;-72
2023/04/21 10:39:03;;;;;;;16.65;8.95;;;19.10;99.90;;;;;;5055297;28;20027;-71
2023/04/21 10:41:30;;;;;;;23.75;9.35;;;19.20;1.00;;;;;;5055263;28;20024;-72
2023/04/21 10:44:00;;;;;;;19.23;9.48;;;19.40;1.00;;;;;;5054943;28;20065;-72
2023/04/21 10:46:39;;;;;;;17.40;9.10;;;19.40;1.00;;;;;;5055637;28;20059;-73
2023/04/21 10:49:09;;;;;;;18.00;9.40;;;19.50;1.00;;;;;;5055741;28;20029;-72
2023/04/21 10:51:55;;;;;;;25.90;8.95;;;19.50;1.00;;;;;;5055482;28;20029;-72
2023/04/21 10:54:21;;;;;;;16.92;8.55;;;19.50;1.00;;;;;;5045093;28;20402;-73
2023/04/21 10:56:50;;;;;;;20.23;8.55;;;19.60;1.00;;;;;;5055090;28;20082;-73
2023/04/21 10:59:17;;;;;;;16.65;8.43;;;19.70;1.00;;;;;;5055138;28;20098;-72
2023/04/21 11:01:44;;;;;;;22.60;8.65;;;19.90;1.00;;;;;;5054890;28;20517;-72
2023/04/21 11:04:13;;;;;;;17.95;7.28;;;;;;;;;;5055046;28;20025;-71
2023/04/21 11:06:40;;;;;;;17.20;7.88;;;;;;;;;;5057357;28;20104;-72
2023/04/21 11:09:06;;;;;;;17.17;8.52;;;;;;;;;;5059035;28;20025;-74
2023/04/21 11:11:32;;;;;;;22.15;8.45;;;;;;;;;;5055496;28;20074;-72
2023/04/21 11:14:01;;;;;;;18.15;8.95;;;;;;;;;;5059002;28;20021;-73
2023/04/21 11:16:27;;;;;;;21.52;8.80;;;;;;;;;;5054339;28;20024;-74
2023/04/21 11:18:55;;;;;;;16.83;8.60;;;;;;;;;;5058178;28;20032;-72
2023/04/21 11:21:23;;;;;;;15.40;8.43;;;;;;;;;;5057549;28;20025;-72
2023/04/21 11:23:56;;;;;;;24.05;8.63;;;;;;;;;;5061562;28;20047;-73
2023/04/21 11:26:37;;;;;;;19.83;8.85;;;;;;;;;;5054950;28;20475;-71
2023/04/21 11:29:08;;;;;;;16.27;9.15;;;;;;;;;;5054849;28;20025;-73
2023/04/21 11:31:35;;;;;;;18.33;9.45;;;;;;;;;;5054420;28;20053;-71
2023/04/21 11:34:04;;;;;;;17.30;9.00;;;;;;;;;;5053539;28;20025;-71
2023/04/21 11:36:31;;;;;;;18.95;9.88;;;;;;;;;;5054345;28;20040;-72
2023/04/21 11:38:58;;;;;;;15.20;8.52;;;;;;;;;;5054108;28;20055;-71
2023/04/21 11:41:24;;;;;;;19.02;8.35;;;;;;;;;;5054892;28;20017;-72
2023/04/21 11:43:51;;;;;;;19.92;8.85;;;;;;;;;;5055295;28;20035;-73
2023/04/21 11:46:18;;;;;;;16.02;8.45;;;;;;;;;;5054384;28;20029;-72
2023/04/21 11:48:45;;;;;;;16.95;9.00;;;;;;;;;;5053583;28;20061;-72
2023/04/21 11:51:15;;;;;;;20.60;8.55;;;;;;;;;;5052733;28;20436;-73
2023/04/21 11:53:41;;;;;;;18.75;7.72;;;;;;;;;;5055837;28;20032;-72
2023/04/21 11:56:09;;;;;;;17.30;7.88;;;;;;;;;;5074130;28;20089;-72
2023/04/21 11:58:35;;;;;;;21.35;11.10;;;;;;;;;;5073531;28;20623;-71
2023/04/21 12:01:08;;;;;;;17.02;8.68;;;;;;;;;;5073827;28;20060;-72
2023/04/21 12:03:34;;;;;;;17.08;8.30;;;;;;;;;;5074157;28;20051;-71
2023/04/21 12:06:00;;;;;;;17.83;8.25;;;;;;;;;;5073427;28;20500;-72
2023/04/21 12:08:31;;;;;;;19.63;8.15;;;;;;;;;;5073649;28;20459;-74
2023/04/21 12:10:58;;;;;;;18.27;7.93;;;;;;;;;;5074043;28;20028;-72
2023/04/21 12:13:26;;;;;;;16.50;8.45;;;;;;;;;;5073181;28;20020;-73
2023/04/21 12:15:52;;;;;;;16.80;7.18;;;;;;;;;;5073362;28;20081;-73
2023/04/21 12:18:18;;;;;;;22.98;8.43;;;;;;;;;;5073395;28;20103;-72
2023/04/21 12:20:51;;;;;;;15.60;8.15;;;;;;;;;;5073375;28;20685;-72
2023/04/21 12:23:17;;;;;;;19.08;7.70;;;;;;;;;;5073135;28;20148;-71
2023/04/21 12:25:45;;;;;;;18.08;7.32;;;;;;;;;;5073416;28;20049;-72
2023/04/21 12:28:11;;;;;;;20.77;7.72;;;;;;;;;;5073901;28;20098;-72
2023/04/21 12:30:37;;;;;;;14.93;7.60;;;;;;;;;;5073383;28;20021;-72
2023/04/21 12:33:03;;;;;;;21.50;8.13;;;;;;;;;;5073275;28;20029;-75
2023/04/21 12:35:32;;;;;;;15.05;7.40;;;;;;;;;;5073516;28;20028;-73
2023/04/21 12:37:58;;;;;;;20.48;8.07;;;;;;;;;;5073366;28;20025;-74
2023/04/21 12:40:24;;;;;;;17.70;7.60;;;;;;;;;;5073589;28;20378;-73
2023/04/21 12:42:50;;;;;;;18.15;7.40;;;;;;;;;;5071852;28;20038;-73
2023/04/21 12:45:16;;;;;;;22.33;8.45;;;;;;;;;;5072921;28;20054;-72
2023/04/21 12:47:42;;;;;;;17.25;7.82;;;;;;;;;;5060607;28;20055;-71
2023/04/21 12:50:10;;;;;;;14.75;7.15;;;;;;;;;;5058773;28;20032;-72